createdAt,value
2023-01-13T00:01:49.525Z,50.28
2023-01-13T00:04:18.093Z,36.40
2023-01-13T00:06:46.020Z,29.45
2023-01-13T00:09:13.959Z,28.98
2023-01-13T00:11:43.104Z,29.42
2023-01-13T00:14:11.211Z,30.75
2023-01-13T00:16:39.147Z,30.23
2023-01-13T00:19:07.610Z,24.55
2023-01-13T00:21:36.683Z,29.60
2023-01-13T00:24:05.075Z,42.20
2023-01-13T00:26:36.019Z,32.72
2023-01-13T00:29:04.263Z,29.08
2023-01-13T00:31:32.477Z,39.10
2023-01-13T00:34:03.020Z,30.23
2023-01-13T00:36:33.166Z,37.70
2023-01-13T00:39:01.361Z,36.97
2023-01-13T00:41:49.622Z,47.63
2023-01-13T00:44:18.403Z,37.38
2023-01-13T00:46:46.663Z,34.08
2023-01-13T00:49:14.683Z,40.00
2023-01-13T00:51:42.891Z,33.60
2023-01-13T00:54:10.876Z,40.72
2023-01-13T00:56:41.327Z,31.98
2023-01-13T00:59:13.653Z,39.65
2023-01-13T01:01:42.217Z,26.58
2023-01-13T01:04:11.226Z,23.05
2023-01-13T01:06:40.138Z,33.53
2023-01-13T01:09:08.396Z,37.00
2023-01-13T01:11:38.105Z,33.42
2023-01-13T01:14:06.729Z,52.90
2023-01-13T01:16:35.551Z,55.30
2023-01-13T01:19:04.250Z,48.67
2023-01-13T01:21:32.839Z,47.72
2023-01-13T01:24:02.081Z,39.80
2023-01-13T01:26:33.133Z,35.67
2023-01-13T01:29:02.610Z,36.70
2023-01-13T01:31:33.141Z,37.08
2023-01-13T01:34:01.831Z,35.25
2023-01-13T01:36:30.448Z,46.38
2023-01-13T01:38:58.794Z,44.17
2023-01-13T01:41:29.460Z,37.13
2023-01-13T01:44:08.512Z,41.17
2023-01-13T01:46:43.443Z,41.35
2023-01-13T01:49:14.053Z,43.40
2023-01-13T01:51:50.760Z,51.67
2023-01-13T01:54:27.960Z,50.47
2023-01-13T01:56:57.066Z,48.13
2023-01-13T01:59:30.438Z,42.47
2023-01-13T02:01:59.287Z,44.70
2023-01-13T02:04:36.802Z,34.63
2023-01-13T02:07:04.766Z,35.13
2023-01-13T02:09:36.003Z,37.05
2023-01-13T02:12:23.098Z,33.78
2023-01-13T02:14:51.024Z,31.30
2023-01-13T02:17:22.459Z,34.80
2023-01-13T02:20:16.390Z,32.60
2023-01-13T02:23:51.873Z,27.80
2023-01-13T02:26:36.819Z,32.33
2023-01-13T02:29:34.520Z,40.75
2023-01-13T02:32:33.604Z,49.85
2023-01-13T02:35:08.824Z,41.45
2023-01-13T02:37:39.119Z,32.88
2023-01-13T02:40:13.769Z,33.30
2023-01-13T02:43:07.174Z,38.65
2023-01-13T02:45:56.122Z,40.15
2023-01-13T02:48:24.248Z,35.22
2023-01-13T02:50:57.726Z,37.95
2023-01-13T02:54:08.950Z,37.95
2023-01-13T02:56:39.751Z,47.20
2023-01-13T02:59:07.747Z,40.10
2023-01-13T03:01:37.965Z,41.10
2023-01-13T03:04:13.326Z,38.47
2023-01-13T03:07:25.553Z,39.50
2023-01-13T03:10:02.134Z,40.65
2023-01-13T03:12:38.259Z,49.05
2023-01-13T03:15:30.685Z,49.65
2023-01-13T03:18:07.655Z,48.38
2023-01-13T03:20:37.739Z,55.47
2023-01-13T03:23:14.469Z,54.13
2023-01-13T03:25:47.666Z,52.13
2023-01-13T03:28:25.969Z,58.88
2023-01-13T03:30:56.997Z,52.97
2023-01-13T03:33:29.696Z,54.47
2023-01-13T03:35:59.814Z,55.72
2023-01-13T03:38:45.178Z,55.25
2023-01-13T03:41:29.406Z,49.50
2023-01-13T03:44:22.677Z,55.35
2023-01-13T03:47:11.202Z,64.00
2023-01-13T03:49:40.680Z,47.40
2023-01-13T03:52:10.643Z,46.85
2023-01-13T03:55:01.502Z,42.00
2023-01-13T03:57:31.461Z,40.35
2023-01-13T04:00:00.515Z,33.08
2023-01-13T04:02:37.357Z,31.05
2023-01-13T04:05:07.389Z,32.15
2023-01-13T04:08:12.059Z,32.88
2023-01-13T04:10:56.108Z,37.10
2023-01-13T04:13:24.810Z,27.73
2023-01-13T04:15:52.767Z,35.67
2023-01-13T04:18:28.131Z,32.20
2023-01-13T04:20:57.576Z,38.00
2023-01-13T04:23:25.855Z,35.33
2023-01-13T04:25:53.764Z,45.20
2023-01-13T04:28:21.755Z,41.22
2023-01-13T04:30:49.595Z,50.22
2023-01-13T04:33:19.437Z,56.55
2023-01-13T04:35:47.885Z,61.08
2023-01-13T04:38:17.514Z,47.67
2023-01-13T04:40:48.134Z,43.38
2023-01-13T04:43:16.164Z,53.83
2023-01-13T04:45:44.207Z,51.70
2023-01-13T04:48:12.350Z,46.75
2023-01-13T04:50:40.267Z,51.10
2023-01-13T04:53:08.181Z,49.30
2023-01-13T04:55:36.315Z,54.88
2023-01-13T04:58:09.347Z,60.05
2023-01-13T05:00:38.034Z,59.05
2023-01-13T05:03:05.953Z,76.47
2023-01-13T05:05:34.449Z,52.25
2023-01-13T05:08:03.377Z,95.38
2023-01-13T05:10:31.436Z,73.57
2023-01-13T05:13:18.265Z,91.88
2023-01-13T05:16:06.728Z,106.07
2023-01-13T05:18:34.882Z,68.82
2023-01-13T05:21:02.766Z,62.47
2023-01-13T05:23:49.595Z,51.50
2023-01-13T05:26:17.554Z,38.40
2023-01-13T05:28:45.388Z,52.17
2023-01-13T05:31:15.115Z,72.38
2023-01-13T05:33:43.515Z,71.22
2023-01-13T05:36:11.388Z,46.65
2023-01-13T05:38:40.183Z,46.95
2023-01-13T05:41:26.865Z,45.42
2023-01-13T05:43:54.809Z,41.35
2023-01-13T05:46:22.684Z,35.58
2023-01-13T05:48:50.867Z,49.55
2023-01-13T05:51:19.822Z,39.00
2023-01-13T05:53:48.507Z,39.92
2023-01-13T05:56:18.125Z,45.90
2023-01-13T05:58:47.371Z,48.45
2023-01-13T06:01:16.216Z,40.28
2023-01-13T06:03:44.462Z,41.38
2023-01-13T06:06:12.851Z,41.22
2023-01-13T06:08:40.904Z,49.50
2023-01-13T06:11:08.950Z,44.00
2023-01-13T06:13:37.136Z,61.50
2023-01-13T06:16:05.365Z,55.10
2023-01-13T06:18:33.266Z,53.05
2023-01-13T06:21:01.625Z,49.08
2023-01-13T06:23:29.727Z,57.08
2023-01-13T06:26:14.707Z,52.55
2023-01-13T06:28:43.211Z,52.60
2023-01-13T06:31:11.189Z,62.83
2023-01-13T06:34:09.487Z,48.53
2023-01-13T06:36:40.412Z,50.75
2023-01-13T06:39:08.370Z,65.20
2023-01-13T06:41:55.072Z,38.88
2023-01-13T06:44:23.272Z,45.25
2023-01-13T06:46:52.209Z,63.67
2023-01-13T06:49:21.686Z,59.90
2023-01-13T06:51:50.664Z,48.40
2023-01-13T06:54:18.558Z,52.42
2023-01-13T06:56:46.463Z,46.15
2023-01-13T06:59:15.384Z,37.85
2023-01-13T07:01:43.995Z,33.35
2023-01-13T07:04:12.487Z,36.40
2023-01-13T07:06:41.002Z,25.02
2023-01-13T07:09:09.526Z,29.25
2023-01-13T07:11:38.234Z,37.88
2023-01-13T07:14:24.591Z,35.83
2023-01-13T07:19:43.263Z,26.88
2023-01-13T07:22:14.224Z,31.45
2023-01-13T07:24:45.006Z,34.63
2023-01-13T07:27:16.424Z,30.42
2023-01-13T07:29:44.963Z,22.42
2023-01-13T07:32:12.824Z,31.83
2023-01-13T07:34:40.662Z,36.85
2023-01-13T07:37:08.823Z,33.35
2023-01-13T07:39:38.131Z,28.17
2023-01-13T07:42:24.951Z,32.83
2023-01-13T07:44:52.899Z,37.65
2023-01-13T07:47:23.594Z,30.85
2023-01-13T07:49:51.618Z,43.25
2023-01-13T07:52:21.469Z,32.50
2023-01-13T07:54:50.227Z,26.73
2023-01-13T07:57:18.642Z,27.45
2023-01-13T07:59:46.633Z,32.67
2023-01-13T08:02:14.756Z,46.42
2023-01-13T08:04:44.418Z,31.08
2023-01-13T08:07:12.207Z,40.67
2023-01-13T08:09:39.950Z,17.73
2023-01-13T08:12:26.357Z,33.13
2023-01-13T08:15:08.417Z,21.70
2023-01-13T08:17:37.165Z,28.67
2023-01-13T08:20:07.193Z,24.90
2023-01-13T08:22:35.644Z,17.15
2023-01-13T08:25:04.069Z,20.60
2023-01-13T08:27:32.617Z,24.42
2023-01-13T08:30:01.459Z,28.08
2023-01-13T08:32:29.728Z,33.78
2023-01-13T08:34:58.088Z,27.65
2023-01-13T08:37:26.189Z,29.80
2023-01-13T08:39:54.786Z,22.35
2023-01-13T08:42:22.629Z,27.02
2023-01-13T08:44:50.526Z,28.65
2023-01-13T08:47:18.365Z,28.75
2023-01-13T08:49:46.325Z,28.20
2023-01-13T08:52:15.781Z,36.75
2023-01-13T08:54:46.056Z,28.55
2023-01-13T08:57:15.488Z,33.42
2023-01-13T08:59:43.617Z,35.00
2023-01-13T09:02:19.102Z,34.03
2023-01-13T09:04:47.860Z,22.42
2023-01-13T09:07:15.672Z,29.33
2023-01-13T09:09:44.447Z,22.27
2023-01-13T09:12:33.360Z,23.20
2023-01-13T09:15:01.809Z,33.60
2023-01-13T09:17:31.635Z,27.88
2023-01-13T09:20:00.092Z,24.63
2023-01-13T09:22:29.467Z,29.85
2023-01-13T09:24:57.394Z,28.95
2023-01-13T09:27:25.443Z,23.95
2023-01-13T09:29:53.612Z,23.65
2023-01-13T09:32:22.451Z,28.20
2023-01-13T09:35:02.158Z,18.33
2023-01-13T09:37:34.218Z,22.10
2023-01-13T09:40:11.944Z,29.33
2023-01-13T09:43:15.259Z,22.08
2023-01-13T09:46:28.925Z,17.95
2023-01-13T09:48:57.426Z,25.88
2023-01-13T09:51:50.225Z,25.92
2023-01-13T09:54:31.115Z,26.58
2023-01-13T09:57:01.339Z,32.00
2023-01-13T09:59:32.769Z,39.10
2023-01-13T10:02:33.156Z,33.58
2023-01-13T10:05:18.147Z,28.85
2023-01-13T10:07:54.473Z,38.00
2023-01-13T10:10:31.090Z,41.00
2023-01-13T10:13:14.412Z,33.72
2023-01-13T10:15:46.890Z,31.15
2023-01-13T10:18:54.501Z,31.23
2023-01-13T14:00:43.048Z,33.33
2023-01-13T14:03:27.088Z,32.13
2023-01-13T14:05:57.790Z,36.08
2023-01-13T14:08:26.584Z,31.35
2023-01-13T14:10:54.569Z,31.92
2023-01-13T14:13:23.422Z,36.72
2023-01-13T14:16:04.999Z,36.53
2023-01-13T14:18:45.672Z,32.90
2023-01-13T14:21:16.948Z,37.67
2023-01-13T14:24:05.678Z,40.28
2023-01-13T14:26:35.450Z,39.08
2023-01-13T14:29:03.740Z,34.42
2023-01-13T14:31:33.186Z,38.75
2023-01-13T14:34:02.866Z,32.72
2023-01-13T14:36:51.457Z,32.55
2023-01-13T14:39:24.214Z,33.75
2023-01-13T14:41:53.439Z,34.05
2023-01-13T14:44:32.584Z,34.97
2023-01-13T14:47:23.848Z,29.45
2023-01-13T14:50:19.605Z,32.05
2023-01-13T14:52:49.257Z,25.48
2023-01-13T14:55:31.629Z,25.52
2023-01-13T14:58:21.718Z,24.80
2023-01-13T15:00:50.345Z,28.45
2023-01-13T15:03:19.441Z,17.70
2023-01-13T15:05:49.521Z,27.65
2023-01-13T15:08:32.641Z,33.90
2023-01-13T15:11:06.053Z,37.55
2023-01-13T15:13:47.827Z,35.75
2023-01-13T15:16:30.001Z,39.20
2023-01-13T15:18:58.260Z,38.60
2023-01-13T15:21:26.461Z,34.33
2023-01-13T15:23:54.321Z,41.65
2023-01-13T15:26:26.845Z,35.30
2023-01-13T15:28:56.463Z,44.35
2023-01-13T15:31:24.767Z,35.72
2023-01-13T15:33:52.621Z,37.80
2023-01-13T15:36:22.257Z,37.05
2023-01-13T15:38:50.956Z,39.28
2023-01-13T15:41:38.900Z,38.70
2023-01-13T15:44:25.875Z,43.38
2023-01-13T15:49:37.360Z,41.55
2023-01-13T15:52:20.203Z,33.75
2023-01-13T15:54:48.479Z,40.83
2023-01-13T15:57:26.542Z,32.38
2023-01-13T15:59:56.869Z,32.25
2023-01-13T16:02:25.432Z,22.95
2023-01-13T16:04:54.162Z,37.17
2023-01-13T16:07:22.945Z,42.08
2023-01-13T16:09:52.371Z,39.50
2023-01-13T16:12:21.554Z,45.65
2023-01-13T16:14:51.061Z,51.45
2023-01-13T16:17:23.755Z,50.47
2023-01-13T16:19:52.673Z,52.58
2023-01-13T16:22:20.623Z,47.92
2023-01-13T16:24:48.699Z,45.88
2023-01-13T16:27:17.684Z,40.88
2023-01-13T16:29:45.652Z,39.53
2023-01-13T16:32:13.880Z,37.95
2023-01-13T16:34:43.579Z,43.47
2023-01-13T16:37:27.454Z,48.50
2023-01-13T16:39:55.455Z,52.08
2023-01-13T16:42:23.491Z,39.88
2023-01-13T16:44:53.051Z,41.03
2023-01-13T16:47:22.891Z,41.35
2023-01-13T16:49:50.747Z,39.10
2023-01-13T16:52:18.639Z,40.50
2023-01-13T16:54:46.481Z,38.78
2023-01-13T16:57:16.095Z,47.38
2023-01-13T16:59:44.328Z,39.28
2023-01-13T17:02:13.789Z,41.92
2023-01-13T17:04:45.265Z,34.28
2023-01-13T17:07:15.602Z,38.13
2023-01-13T17:09:48.568Z,41.33
2023-01-13T17:12:16.808Z,36.50
2023-01-13T17:14:48.743Z,40.50
2023-01-13T17:17:25.062Z,38.10
2023-01-13T17:19:52.969Z,42.78
2023-01-13T17:22:22.094Z,53.75
2023-01-13T17:24:50.095Z,45.83
2023-01-13T17:27:18.913Z,39.50
2023-01-13T17:29:47.795Z,47.97
2023-01-13T17:32:19.091Z,39.92
2023-01-13T17:34:47.542Z,47.60
2023-01-13T17:37:17.660Z,37.78
2023-01-13T17:39:48.781Z,43.10
2023-01-13T17:42:16.767Z,51.92
2023-01-13T17:44:44.659Z,52.08
2023-01-13T17:47:12.970Z,54.20
2023-01-13T17:49:41.108Z,40.45
2023-01-13T17:52:09.087Z,47.80
2023-01-13T17:54:40.056Z,45.47
2023-01-13T17:57:10.597Z,47.08
2023-01-13T17:59:38.590Z,46.45
2023-01-13T18:02:48.903Z,49.97
2023-01-13T18:05:23.376Z,47.90
2023-01-13T18:07:55.069Z,33.97
2023-01-13T18:10:23.617Z,30.98
2023-01-13T18:12:51.469Z,45.85
2023-01-13T18:15:19.363Z,52.85
2023-01-13T18:17:48.387Z,44.53
2023-01-13T18:20:35.961Z,44.78
2023-01-13T18:23:25.206Z,53.80
2023-01-13T18:26:12.112Z,46.00
2023-01-13T18:28:40.045Z,53.03
2023-01-13T18:31:14.562Z,45.08
2023-01-13T18:33:43.164Z,58.95
2023-01-13T18:36:11.309Z,44.03
2023-01-13T18:38:39.287Z,50.65
2023-01-13T18:41:27.693Z,53.45
2023-01-13T18:43:55.509Z,44.38
2023-01-13T18:46:23.414Z,56.88
2023-01-13T18:48:52.853Z,55.47
2023-01-13T18:51:21.577Z,59.28
2023-01-13T18:53:55.224Z,49.55
2023-01-13T18:56:23.420Z,69.60
2023-01-13T18:58:52.334Z,59.10
2023-01-13T19:01:26.008Z,47.75
2023-01-13T19:03:57.029Z,51.08
2023-01-13T19:06:27.775Z,64.25
2023-01-13T19:09:26.896Z,60.33
2023-01-13T19:11:57.229Z,59.08
2023-01-13T19:14:34.544Z,64.30
2023-01-13T19:17:03.104Z,67.03
2023-01-13T19:19:31.652Z,59.78
2023-01-13T19:21:59.498Z,66.40
2023-01-13T19:24:27.448Z,66.47
2023-01-13T19:26:55.447Z,72.88
2023-01-13T19:29:23.652Z,74.38
2023-01-13T19:31:51.734Z,67.00
2023-01-13T19:34:19.981Z,67.03
2023-01-13T19:36:50.884Z,57.10
2023-01-13T19:39:19.638Z,78.72
2023-01-13T19:42:07.485Z,72.18
2023-01-13T19:44:55.779Z,87.53
2023-01-13T19:47:23.978Z,60.42
2023-01-13T19:49:52.324Z,72.57
2023-01-13T19:52:20.747Z,66.75
2023-01-13T19:54:48.652Z,66.93
2023-01-13T19:57:16.723Z,81.53
2023-01-13T19:59:44.534Z,71.43
2023-01-13T20:02:16.735Z,76.93
2023-01-13T20:04:49.991Z,84.18
2023-01-13T20:07:18.339Z,80.25
2023-01-13T20:09:46.437Z,75.22
2023-01-13T20:12:17.450Z,71.90
2023-01-13T20:14:47.887Z,76.47
2023-01-13T20:17:19.230Z,79.22
2023-01-13T20:19:47.650Z,61.75
2023-01-13T20:22:17.857Z,71.10
2023-01-13T20:24:48.615Z,68.20
2023-01-13T20:27:16.559Z,60.47
2023-01-13T20:29:47.024Z,70.55
2023-01-13T20:32:15.295Z,81.68
2023-01-13T20:34:43.719Z,74.32
2023-01-13T20:37:14.141Z,69.22
2023-01-13T20:39:49.950Z,83.93
2023-01-13T20:42:30.145Z,71.18
2023-01-13T20:45:01.460Z,79.55
2023-01-13T20:47:30.093Z,94.55
2023-01-13T20:49:59.426Z,69.38
2023-01-13T20:52:28.087Z,84.38
2023-01-13T20:55:21.819Z,68.05
2023-01-13T20:57:50.391Z,65.85
2023-01-13T21:00:22.087Z,68.22
2023-01-13T21:02:50.565Z,75.35
2023-01-13T21:05:20.082Z,72.18
2023-01-13T21:07:48.264Z,77.32
2023-01-13T21:10:16.647Z,73.80
2023-01-13T21:13:03.994Z,86.93
2023-01-13T21:15:31.894Z,72.25
2023-01-13T21:18:23.432Z,87.28
2023-01-13T21:21:12.632Z,79.57
2023-01-13T21:23:44.308Z,75.75
2023-01-13T21:26:13.130Z,65.68
2023-01-13T21:28:42.681Z,69.20
2023-01-13T21:31:11.009Z,59.75
2023-01-13T21:33:39.657Z,62.78
2023-01-13T21:36:12.911Z,66.65
2023-01-13T21:41:14.535Z,75.30
2023-01-13T21:44:06.856Z,76.25
2023-01-13T21:46:53.933Z,73.78
2023-01-13T21:49:21.796Z,55.08
2023-01-13T21:51:49.728Z,66.07
2023-01-13T21:54:17.553Z,74.63
2023-01-13T21:56:45.860Z,78.57
2023-01-13T21:59:17.352Z,72.70
2023-01-13T22:02:02.795Z,79.15
2023-01-13T22:04:34.658Z,71.63
2023-01-13T22:07:04.758Z,62.88
2023-01-13T22:09:33.876Z,69.88
2023-01-13T22:12:01.809Z,73.60
2023-01-13T22:14:30.910Z,65.40
2023-01-13T22:17:01.179Z,66.05
2023-01-13T22:19:30.649Z,73.40
2023-01-13T22:21:59.842Z,74.97
2023-01-13T22:24:30.306Z,74.82
2023-01-13T22:27:20.962Z,89.05
2023-01-13T22:29:49.871Z,78.20
2023-01-13T22:32:18.584Z,74.97
2023-01-13T22:34:46.810Z,64.88
2023-01-13T22:37:15.236Z,75.03
2023-01-13T22:39:43.547Z,74.85
2023-01-13T22:42:13.227Z,74.63
2023-01-13T22:44:41.190Z,75.10
2023-01-13T22:47:10.072Z,82.30
2023-01-13T22:49:38.700Z,75.18
2023-01-13T22:52:07.337Z,91.05
2023-01-13T22:54:35.508Z,66.00
2023-01-13T22:57:04.312Z,75.10
2023-01-13T22:59:32.789Z,80.90
2023-01-13T23:02:01.012Z,67.15
2023-01-13T23:04:29.534Z,61.67
2023-01-13T23:06:57.772Z,70.55
2023-01-13T23:09:29.928Z,74.07
2023-01-13T23:12:02.147Z,72.47
2023-01-13T23:14:30.961Z,61.42
2023-01-13T23:16:58.955Z,65.85
2023-01-13T23:19:26.948Z,75.43
2023-01-13T23:21:54.963Z,45.78
2023-01-13T23:24:26.509Z,72.35
2023-01-13T23:26:55.169Z,74.82
2023-01-13T23:29:23.374Z,67.65
2023-01-13T23:31:54.117Z,72.70
2023-01-13T23:34:22.328Z,77.38
2023-01-13T23:36:50.393Z,69.30
2023-01-13T23:39:21.302Z,84.65
2023-01-13T23:41:49.524Z,66.88
2023-01-13T23:44:17.546Z,79.63
2023-01-13T23:46:46.012Z,71.60
2023-01-13T23:49:34.467Z,75.78
2023-01-13T23:52:02.687Z,69.13
2023-01-13T23:54:34.183Z,65.10
2023-01-13T23:57:02.518Z,66.25
2023-01-13T23:59:31.047Z,71.63
